Wetterdaten: Woche 08.05.17 - 14.05.17 (KW19)
Datum Zeit Temperatur Luftfeuchte Luftdruck Niederschlag Windrichtung Sonnenschein Solar Wind
08.05.2017 00:00 9,3 C 97 % 1013,4 hPa 0,4 l/m W-SW 0,00 h 0 W/m 15,7 km/h (3 Bft)
08.05.2017 01:00 9,2 C 97 % 1013,3 hPa 0,8 l/m W-SW 0,00 h 0 W/m 11,5 km/h (2 Bft)
08.05.2017 02:00 9,1 C 97 % 1013,1 hPa 2,2 l/m W 0,00 h 0 W/m 9,1 km/h (2 Bft)
08.05.2017 03:00 9,0 C 98 % 1013,1 hPa 0,6 l/m W-NW 0,00 h 0 W/m 14,1 km/h (3 Bft)
08.05.2017 04:00 8,8 C 98 % 1013,2 hPa 1,0 l/m W 0,00 h 0 W/m 12,9 km/h (3 Bft)
08.05.2017 05:00 8,8 C 98 % 1013,2 hPa 1,0 l/m W 0,00 h 0 W/m 9,0 km/h (2 Bft)
08.05.2017 06:00 8,7 C 98 % 1013,3 hPa 0,8 l/m W-SW 0,00 h 11 W/m 12,1 km/h (2 Bft)
08.05.2017 07:00 8,8 C 98 % 1013,5 hPa 0,4 l/m W 0,00 h 49 W/m 11,7 km/h (2 Bft)
08.05.2017 08:00 9,2 C 98 % 1013,8 hPa 0,0 l/m W 0,00 h 81 W/m 12,1 km/h (2 Bft)
08.05.2017 09:00 9,3 C 98 % 1014,1 hPa 0,4 l/m W 0,00 h 89 W/m 15,0 km/h (3 Bft)
08.05.2017 10:00 9,4 C 98 % 1014,4 hPa 0,0 l/m W 0,00 h 91 W/m 15,6 km/h (3 Bft)
08.05.2017 11:00 9,5 C 97 % 1014,7 hPa 0,4 l/m W-NW 0,00 h 82 W/m 10,5 km/h (2 Bft)
08.05.2017 12:00 9,5 C 97 % 1014,8 hPa 0,4 l/m W-NW 0,00 h 125 W/m 14,4 km/h (3 Bft)
08.05.2017 13:00 9,6 C 96 % 1014,9 hPa 0,0 l/m W-NW 0,00 h 133 W/m 11,8 km/h (2 Bft)
08.05.2017 14:00 9,6 C 96 % 1015,1 hPa 0,0 l/m W-NW 0,00 h 133 W/m 10,7 km/h (2 Bft)
08.05.2017 15:00 9,5 C 96 % 1015,2 hPa 0,4 l/m NW 0,00 h 150 W/m 11,7 km/h (2 Bft)
08.05.2017 16:00 9,2 C 95 % 1015,2 hPa 0,0 l/m W-NW 0,00 h 102 W/m 10,5 km/h (2 Bft)
08.05.2017 17:00 8,9 C 95 % 1015,4 hPa 0,4 l/m W-NW 0,00 h 76 W/m 8,6 km/h (2 Bft)
08.05.2017 18:00 9,0 C 96 % 1015,3 hPa 0,4 l/m NW 0,00 h 69 W/m 3,2 km/h (1 Bft)
08.05.2017 19:00 8,6 C 96 % 1015,5 hPa 0,4 l/m N-NO 0,00 h 28 W/m 11,3 km/h (2 Bft)
08.05.2017 20:00 7,8 C 96 % 1016,1 hPa 0,2 l/m N-NO 0,00 h 6 W/m 8,2 km/h (2 Bft)
08.05.2017 21:00 7,4 C 96 % 1016,8 hPa 0,2 l/m N-NO 0,00 h 0 W/m 7,2 km/h (2 Bft)
08.05.2017 22:00 7,1 C 96 % 1017,2 hPa 0,0 l/m N-NO 0,00 h 0 W/m 6,6 km/h (2 Bft)
08.05.2017 23:00 6,9 C 96 % 1017,3 hPa 0,0 l/m N-NO 0,00 h 0 W/m 4,3 km/h (1 Bft)
09.05.2017 00:00 6,2 C 96 % 1017,5 hPa 0,0 l/m N 0,00 h 0 W/m 12,6 km/h (3 Bft)
09.05.2017 01:00 5,4 C 96 % 1017,4 hPa 0,0 l/m N 0,00 h 0 W/m 6,5 km/h (2 Bft)
09.05.2017 02:00 5,1 C 96 % 1017,1 hPa 0,0 l/m N 0,00 h 0 W/m 3,6 km/h (1 Bft)
09.05.2017 03:00 5,0 C 96 % 1016,8 hPa 0,0 l/m N 0,00 h 0 W/m 2,1 km/h (1 Bft)
09.05.2017 04:00 4,8 C 96 % 1016,7 hPa 0,0 l/m N 0,00 h 0 W/m 0,4 km/h (0 Bft)
09.05.2017 05:00 4,8 C 96 % 1016,4 hPa 0,0 l/m N 0,00 h 0 W/m 0,7 km/h (0 Bft)
09.05.2017 06:00 4,7 C 96 % 1016,5 hPa 0,0 l/m N 0,00 h 29 W/m 0,0 km/h (0 Bft)
09.05.2017 07:00 5,1 C 95 % 1016,5 hPa 0,0 l/m N 0,08 h 109 W/m 0,0 km/h (0 Bft)
09.05.2017 08:00 5,8 C 93 % 1016,6 hPa 0,0 l/m N 0,00 h 118 W/m 0,5 km/h (0 Bft)
09.05.2017 09:00 6,7 C 90 % 1016,5 hPa 0,0 l/m N 0,17 h 286 W/m 5,2 km/h (1 Bft)
09.05.2017 10:00 8,0 C 83 % 1016,4 hPa 0,0 l/m N-NO 0,67 h 404 W/m 9,4 km/h (2 Bft)
09.05.2017 11:00 8,7 C 75 % 1016,3 hPa 0,0 l/m NO 0,25 h 398 W/m 11,2 km/h (2 Bft)
09.05.2017 12:00 9,7 C 69 % 1016,1 hPa 0,0 l/m O-NO 0,50 h 394 W/m 9,5 km/h (2 Bft)
09.05.2017 13:00 9,7 C 68 % 1015,7 hPa 0,0 l/m O-SO 0,25 h 409 W/m 8,9 km/h (2 Bft)
09.05.2017 14:00 10,2 C 64 % 1015,3 hPa 0,0 l/m SO 0,00 h 236 W/m 6,0 km/h (2 Bft)
09.05.2017 15:00 10,8 C 64 % 1014,8 hPa 0,0 l/m O-SO 0,50 h 497 W/m 7,2 km/h (2 Bft)
09.05.2017 16:00 10,8 C 62 % 1014,2 hPa 0,0 l/m O-SO 0,00 h 261 W/m 5,8 km/h (1 Bft)
09.05.2017 17:00 10,9 C 62 % 1013,8 hPa 0,0 l/m O-SO 0,00 h 190 W/m 7,2 km/h (2 Bft)
09.05.2017 18:00 10,6 C 63 % 1013,4 hPa 0,0 l/m O-SO 0,00 h 144 W/m 4,7 km/h (1 Bft)
09.05.2017 19:00 10,2 C 66 % 1013,2 hPa 0,0 l/m O-SO 0,17 h 76 W/m 4,0 km/h (1 Bft)
09.05.2017 20:00 9,0 C 72 % 1013,1 hPa 0,0 l/m O-SO 0,00 h 15 W/m 4,1 km/h (1 Bft)
09.05.2017 21:00 6,2 C 84 % 1013,0 hPa 0,0 l/m N 0,00 h 0 W/m 0,0 km/h (0 Bft)
09.05.2017 22:00 4,8 C 90 % 1013,0 hPa 0,0 l/m N 0,00 h 0 W/m 0,0 km/h (0 Bft)
09.05.2017 23:00 4,0 C 92 % 1012,7 hPa 0,0 l/m N 0,00 h 0 W/m 0,0 km/h (0 Bft)
10.05.2017 00:00 3,7 C 94 % 1012,4 hPa 0,0 l/m N 0,00 h 0 W/m 0,0 km/h (0 Bft)
10.05.2017 01:00 3,2 C 95 % 1012,1 hPa 0,0 l/m O-SO 0,00 h 0 W/m 0,5 km/h (0 Bft)
10.05.2017 02:00 2,9 C 95 % 1011,6 hPa 0,0 l/m N 0,00 h 0 W/m 0,0 km/h (0 Bft)
10.05.2017 03:00 2,5 C 95 % 1011,0 hPa 0,0 l/m N 0,00 h 0 W/m 0,3 km/h (0 Bft)
10.05.2017 04:00 1,9 C 95 % 1010,4 hPa 0,0 l/m N 0,00 h 0 W/m 0,0 km/h (0 Bft)
10.05.2017 05:00 1,5 C 95 % 1009,7 hPa 0,0 l/m N 0,00 h 6 W/m 0,1 km/h (0 Bft)
10.05.2017 06:00 1,4 C 96 % 1009,7 hPa 0,0 l/m O-SO 0,33 h 50 W/m 3,6 km/h (1 Bft)
10.05.2017 07:00 3,3 C 96 % 1009,9 hPa 0,0 l/m N 0,92 h 214 W/m 2,9 km/h (1 Bft)
10.05.2017 08:00 6,0 C 90 % 1009,5 hPa 0,0 l/m O-SO 1,00 h 418 W/m 3,6 km/h (1 Bft)
10.05.2017 09:00 9,0 C 78 % 1009,3 hPa 0,0 l/m O-SO 0,83 h 463 W/m 4,5 km/h (1 Bft)
10.05.2017 10:00 11,3 C 67 % 1009,0 hPa 0,0 l/m O 0,92 h 662 W/m 8,9 km/h (2 Bft)
10.05.2017 11:00 13,3 C 57 % 1008,7 hPa 0,0 l/m O-SO 1,00 h 825 W/m 9,0 km/h (2 Bft)
10.05.2017 12:00 14,5 C 52 % 1008,2 hPa 0,0 l/m O-SO 1,00 h 887 W/m 7,4 km/h (2 Bft)
10.05.2017 13:00 16,0 C 48 % 1007,6 hPa 0,0 l/m SO 1,00 h 894 W/m 8,6 km/h (2 Bft)
10.05.2017 14:00 17,3 C 45 % 1006,9 hPa 0,0 l/m S-SO 1,00 h 850 W/m 8,6 km/h (2 Bft)
10.05.2017 15:00 18,0 C 44 % 1006,1 hPa 0,0 l/m O-NO 1,00 h 754 W/m 6,7 km/h (2 Bft)
10.05.2017 16:00 19,0 C 40 % 1005,4 hPa 0,0 l/m O-SO 1,00 h 626 W/m 6,0 km/h (2 Bft)
10.05.2017 17:00 19,4 C 38 % 1004,8 hPa 0,0 l/m SO 1,00 h 472 W/m 6,0 km/h (2 Bft)
10.05.2017 18:00 19,1 C 36 % 1004,3 hPa 0,0 l/m SO 1,00 h 296 W/m 6,4 km/h (2 Bft)
10.05.2017 19:00 18,0 C 39 % 1003,9 hPa 0,0 l/m N 0,42 h 99 W/m 1,5 km/h (1 Bft)
10.05.2017 20:00 14,2 C 59 % 1003,8 hPa 0,0 l/m N 0,08 h 14 W/m 0,0 km/h (0 Bft)
10.05.2017 21:00 11,3 C 71 % 1003,8 hPa 0,0 l/m N 0,00 h 0 W/m 0,0 km/h (0 Bft)
10.05.2017 22:00 9,6 C 77 % 1004,0 hPa 0,0 l/m N 0,00 h 0 W/m 0,0 km/h (0 Bft)
10.05.2017 23:00 8,8 C 82 % 1003,8 hPa 0,0 l/m N 0,00 h 0 W/m 0,0 km/h (0 Bft)
11.05.2017 00:00 8,1 C 84 % 1003,8 hPa 0,0 l/m N 0,00 h 0 W/m 0,0 km/h (0 Bft)
11.05.2017 01:00 7,2 C 88 % 1003,5 hPa 0,0 l/m N 0,00 h 0 W/m 0,0 km/h (0 Bft)
11.05.2017 02:00 6,6 C 90 % 1003,3 hPa 0,0 l/m N 0,00 h 0 W/m 0,0 km/h (0 Bft)
11.05.2017 03:00 6,2 C 92 % 1002,8 hPa 0,0 l/m N 0,00 h 0 W/m 0,0 km/h (0 Bft)
11.05.2017 04:00 6,0 C 92 % 1002,3 hPa 0,0 l/m N 0,00 h 0 W/m 0,1 km/h (0 Bft)
11.05.2017 05:00 5,4 C 93 % 1001,9 hPa 0,0 l/m N 0,00 h 7 W/m 0,0 km/h (0 Bft)
11.05.2017 06:00 5,8 C 93 % 1001,8 hPa 0,0 l/m S-SO 0,67 h 53 W/m 1,9 km/h (1 Bft)
11.05.2017 07:00 8,2 C 88 % 1001,7 hPa 0,0 l/m S-SO 0,33 h 119 W/m 1,2 km/h (1 Bft)
11.05.2017 08:00 9,3 C 86 % 1001,2 hPa 0,0 l/m S-SO 0,00 h 175 W/m 2,0 km/h (1 Bft)
11.05.2017 09:00 12,9 C 75 % 1000,9 hPa 0,0 l/m SO 0,83 h 468 W/m 3,7 km/h (1 Bft)
11.05.2017 10:00 16,9 C 57 % 1000,4 hPa 0,0 l/m S-SO 0,92 h 650 W/m 4,5 km/h (1 Bft)
11.05.2017 11:00 19,6 C 50 % 999,7 hPa 0,0 l/m SO 0,92 h 649 W/m 7,5 km/h (2 Bft)
11.05.2017 12:00 20,9 C 44 % 999,1 hPa 0,0 l/m O-SO 0,67 h 598 W/m 9,4 km/h (2 Bft)
11.05.2017 13:00 21,5 C 42 % 998,3 hPa 0,0 l/m SW 0,67 h 632 W/m 9,7 km/h (2 Bft)
11.05.2017 14:00 22,1 C 40 % 997,8 hPa 0,0 l/m SW 0,92 h 576 W/m 13,6 km/h (3 Bft)
11.05.2017 15:00 21,7 C 42 % 997,3 hPa 0,0 l/m SW 0,42 h 402 W/m 15,0 km/h (3 Bft)
11.05.2017 16:00 19,9 C 42 % 997,1 hPa 0,0 l/m S-SW 0,00 h 169 W/m 19,2 km/h (3 Bft)
11.05.2017 17:00 19,1 C 44 % 996,7 hPa 0,0 l/m S 0,00 h 140 W/m 14,5 km/h (3 Bft)
11.05.2017 18:00 18,0 C 48 % 996,5 hPa 0,0 l/m S 0,00 h 72 W/m 8,4 km/h (2 Bft)
11.05.2017 19:00 17,0 C 56 % 996,3 hPa 0,0 l/m N 0,00 h 46 W/m 0,9 km/h (0 Bft)
11.05.2017 20:00 16,0 C 63 % 996,3 hPa 0,0 l/m N 0,00 h 13 W/m 0,1 km/h (0 Bft)
11.05.2017 21:00 14,3 C 71 % 996,6 hPa 0,0 l/m S-SW 0,00 h 0 W/m 0,0 km/h (0 Bft)
11.05.2017 22:00 13,6 C 72 % 996,9 hPa 0,0 l/m S-SW 0,00 h 0 W/m 0,9 km/h (0 Bft)
11.05.2017 23:00 13,4 C 73 % 997,1 hPa 0,0 l/m S-SO 0,00 h 0 W/m 2,1 km/h (1 Bft)
12.05.2017 00:00 12,6 C 79 % 997,4 hPa 0,0 l/m N 0,00 h 0 W/m 0,3 km/h (0 Bft)
12.05.2017 01:00 12,2 C 84 % 997,8 hPa 0,0 l/m N 0,00 h 0 W/m 0,5 km/h (0 Bft)
12.05.2017 02:00 12,0 C 84 % 998,6 hPa 0,0 l/m W 0,00 h 0 W/m 7,0 km/h (2 Bft)
12.05.2017 03:00 13,2 C 81 % 999,6 hPa 0,0 l/m W 0,00 h 0 W/m 15,2 km/h (3 Bft)
12.05.2017 04:00 12,6 C 86 % 1000,2 hPa 0,0 l/m W 0,00 h 0 W/m 7,5 km/h (2 Bft)
12.05.2017 05:00 11,6 C 93 % 1000,5 hPa 0,0 l/m SW 0,00 h 9 W/m 12,5 km/h (3 Bft)
12.05.2017 06:00 10,7 C 95 % 1000,9 hPa 0,0 l/m SW 0,08 h 40 W/m 10,6 km/h (2 Bft)
12.05.2017 07:00 11,2 C 93 % 1001,5 hPa 0,0 l/m SW 0,67 h 182 W/m 9,4 km/h (2 Bft)
12.05.2017 08:00 13,1 C 85 % 1001,7 hPa 0,0 l/m S-SW 0,83 h 392 W/m 14,0 km/h (3 Bft)
12.05.2017 09:00 14,6 C 77 % 1001,8 hPa 0,0 l/m W-SW 0,58 h 328 W/m 13,2 km/h (3 Bft)
12.05.2017 10:00 16,8 C 68 % 1001,9 hPa 0,0 l/m SW 0,92 h 694 W/m 17,4 km/h (3 Bft)
12.05.2017 11:00 18,0 C 63 % 1001,8 hPa 0,0 l/m SW 0,58 h 627 W/m 15,3 km/h (3 Bft)
12.05.2017 12:00 19,6 C 58 % 1001,8 hPa 0,0 l/m SW 1,00 h 987 W/m 19,7 km/h (3 Bft)
12.05.2017 13:00 20,4 C 52 % 1001,4 hPa 0,0 l/m W-SW 1,00 h 876 W/m 18,8 km/h (3 Bft)
12.05.2017 14:00 20,4 C 49 % 1001,4 hPa 0,0 l/m W-SW 0,25 h 429 W/m 14,4 km/h (3 Bft)
12.05.2017 15:00 18,8 C 60 % 1001,8 hPa 0,0 l/m N-NW 0,42 h 530 W/m 20,2 km/h (4 Bft)
12.05.2017 16:00 20,4 C 50 % 1001,3 hPa 0,0 l/m N 1,00 h 693 W/m 16,6 km/h (3 Bft)
12.05.2017 17:00 20,0 C 50 % 1001,8 hPa 0,0 l/m N 0,75 h 387 W/m 12,2 km/h (2 Bft)
12.05.2017 18:00 19,6 C 50 % 1001,8 hPa 0,0 l/m N-NO 0,42 h 212 W/m 6,6 km/h (2 Bft)
12.05.2017 19:00 18,0 C 59 % 1002,2 hPa 0,0 l/m NW 0,00 h 71 W/m 6,6 km/h (2 Bft)
12.05.2017 20:00 15,3 C 77 % 1003,6 hPa 0,2 l/m S-SW 0,00 h 16 W/m 13,3 km/h (3 Bft)
12.05.2017 21:00 13,2 C 91 % 1004,3 hPa 0,2 l/m S-SW 0,00 h 0 W/m 7,5 km/h (2 Bft)
12.05.2017 22:00 12,6 C 94 % 1004,9 hPa 0,0 l/m S-SW 0,00 h 0 W/m 6,7 km/h (2 Bft)
12.05.2017 23:00 11,8 C 95 % 1005,5 hPa 0,0 l/m S-SW 0,00 h 0 W/m 2,1 km/h (1 Bft)
13.05.2017 00:00 11,2 C 94 % 1006,3 hPa 0,0 l/m S-SW 0,00 h 0 W/m 1,9 km/h (1 Bft)
13.05.2017 01:00 11,1 C 93 % 1006,7 hPa 0,0 l/m SW 0,00 h 0 W/m 7,8 km/h (2 Bft)
13.05.2017 02:00 10,3 C 94 % 1006,9 hPa 0,0 l/m SW 0,00 h 0 W/m 1,1 km/h (0 Bft)
13.05.2017 03:00 9,5 C 96 % 1007,4 hPa 0,0 l/m SW 0,00 h 0 W/m 2,4 km/h (1 Bft)
13.05.2017 04:00 9,2 C 97 % 1007,8 hPa 0,0 l/m N 0,00 h 0 W/m 0,9 km/h (0 Bft)
13.05.2017 05:00 9,2 C 97 % 1008,2 hPa 0,0 l/m SW 0,00 h 8 W/m 1,1 km/h (0 Bft)
13.05.2017 06:00 9,7 C 98 % 1008,7 hPa 0,0 l/m SW 0,92 h 78 W/m 2,1 km/h (1 Bft)
13.05.2017 07:00 11,2 C 96 % 1009,3 hPa 0,0 l/m SW 0,33 h 125 W/m 5,6 km/h (1 Bft)
13.05.2017 08:00 12,6 C 93 % 1009,8 hPa 0,0 l/m S-SW 0,25 h 270 W/m 10,6 km/h (2 Bft)
13.05.2017 09:00 14,6 C 85 % 1010,3 hPa 0,0 l/m SW 0,58 h 403 W/m 12,9 km/h (3 Bft)
13.05.2017 10:00 16,5 C 76 % 1010,6 hPa 0,0 l/m W-SW 1,00 h 701 W/m 18,9 km/h (3 Bft)
13.05.2017 11:00 17,6 C 70 % 1010,9 hPa 0,0 l/m SW 0,83 h 576 W/m 17,8 km/h (3 Bft)
13.05.2017 12:00 18,6 C 64 % 1010,8 hPa 0,0 l/m W-SW 0,67 h 709 W/m 16,2 km/h (3 Bft)
13.05.2017 13:00 20,3 C 57 % 1010,7 hPa 0,0 l/m SW 0,83 h 833 W/m 21,0 km/h (4 Bft)
13.05.2017 14:00 20,7 C 54 % 1010,8 hPa 0,0 l/m W-SW 0,92 h 851 W/m 21,0 km/h (4 Bft)
13.05.2017 15:00 20,0 C 56 % 1010,7 hPa 0,0 l/m SW 0,50 h 414 W/m 15,3 km/h (3 Bft)
13.05.2017 16:00 18,8 C 62 % 1011,1 hPa 0,0 l/m N-NW 0,50 h 511 W/m 19,3 km/h (3 Bft)
13.05.2017 17:00 20,5 C 54 % 1010,8 hPa 0,0 l/m N 0,92 h 479 W/m 9,8 km/h (2 Bft)
13.05.2017 18:00 20,5 C 53 % 1010,8 hPa 0,0 l/m W-SW 0,83 h 253 W/m 4,9 km/h (1 Bft)
13.05.2017 19:00 19,3 C 58 % 1011,2 hPa 0,0 l/m N 0,00 h 66 W/m 1,1 km/h (0 Bft)
13.05.2017 20:00 16,2 C 72 % 1011,8 hPa 0,0 l/m N 0,00 h 14 W/m 0,0 km/h (0 Bft)
13.05.2017 21:00 15,3 C 76 % 1013,0 hPa 0,0 l/m NW 0,00 h 0 W/m 10,7 km/h (2 Bft)
13.05.2017 22:00 13,6 C 85 % 1014,0 hPa 3,0 l/m N-NW 0,00 h 0 W/m 11,1 km/h (2 Bft)
13.05.2017 23:00 12,6 C 93 % 1014,9 hPa 1,8 l/m N-NO 0,00 h 0 W/m 3,8 km/h (1 Bft)
14.05.2017 00:00 12,2 C 96 % 1015,6 hPa 0,2 l/m W-SW 0,00 h 0 W/m 6,6 km/h (2 Bft)
14.05.2017 01:00 12,0 C 96 % 1016,1 hPa 0,2 l/m W-SW 0,00 h 0 W/m 3,1 km/h (1 Bft)
14.05.2017 02:00 11,9 C 97 % 1016,3 hPa 0,0 l/m W-SW 0,00 h 0 W/m 3,8 km/h (1 Bft)
14.05.2017 03:00 11,7 C 98 % 1016,6 hPa 0,0 l/m N 0,00 h 0 W/m 2,3 km/h (1 Bft)
14.05.2017 04:00 11,3 C 98 % 1016,9 hPa 0,0 l/m N 0,00 h 0 W/m 0,0 km/h (0 Bft)
14.05.2017 05:00 11,1 C 98 % 1017,3 hPa 0,0 l/m N 0,00 h 5 W/m 0,0 km/h (0 Bft)
14.05.2017 06:00 11,2 C 99 % 1017,5 hPa 0,0 l/m N 0,00 h 34 W/m 0,1 km/h (0 Bft)
14.05.2017 07:00 11,7 C 98 % 1018,0 hPa 0,0 l/m W-SW 0,25 h 124 W/m 1,1 km/h (0 Bft)
14.05.2017 08:00 13,1 C 96 % 1018,4 hPa 0,0 l/m W-SW 0,58 h 315 W/m 6,5 km/h (2 Bft)
14.05.2017 09:00 15,1 C 88 % 1018,9 hPa 0,0 l/m SW 0,42 h 354 W/m 5,1 km/h (1 Bft)
14.05.2017 10:00 15,9 C 84 % 1019,3 hPa 0,0 l/m W-SW 0,25 h 418 W/m 5,3 km/h (1 Bft)
14.05.2017 11:00 16,7 C 81 % 1019,4 hPa 0,2 l/m SW 0,17 h 285 W/m 11,5 km/h (2 Bft)
14.05.2017 12:00 17,3 C 75 % 1019,5 hPa 0,6 l/m S-SW 0,33 h 461 W/m 8,0 km/h (2 Bft)
14.05.2017 13:00 14,9 C 91 % 1019,8 hPa 7,0 l/m SW 0,08 h 192 W/m 2,7 km/h (1 Bft)
14.05.2017 14:00 15,8 C 91 % 1019,9 hPa 1,8 l/m SO 0,17 h 360 W/m 3,2 km/h (1 Bft)
14.05.2017 15:00 17,5 C 82 % 1019,8 hPa 0,0 l/m N-NO 0,78 h 599 W/m 6,5 km/h (2 Bft)
14.05.2017 16:00 15,6 C 87 % 1020,1 hPa 2,4 l/m W-NW 0,42 h 286 W/m 9,5 km/h (2 Bft)
14.05.2017 17:00 17,1 C 80 % 1020,3 hPa 0,2 l/m NW 0,92 h 492 W/m 2,8 km/h (1 Bft)
14.05.2017 18:00 17,0 C 78 % 1020,8 hPa 0,0 l/m NW 0,33 h 212 W/m 5,8 km/h (1 Bft)
14.05.2017 19:00 14,0 C 87 % 1021,8 hPa 0,2 l/m N-NO 0,00 h 56 W/m 6,8 km/h (2 Bft)
14.05.2017 20:00 13,0 C 93 % 1022,5 hPa 0,0 l/m N 0,17 h 22 W/m 0,0 km/h (0 Bft)
14.05.2017 21:00 12,6 C 96 % 1023,3 hPa 0,0 l/m N 0,00 h 0 W/m 0,3 km/h (0 Bft)
14.05.2017 22:00 11,8 C 96 % 1024,0 hPa 0,0 l/m SW 0,00 h 0 W/m 4,3 km/h (1 Bft)
14.05.2017 23:00 11,5 C 96 % 1024,5 hPa 0,0 l/m SW 0,00 h 0 W/m 7,3 km/h (2 Bft)
Min-Datum _ 10.05.17 10.05.17 11.05.17 - - - - 08.05.17
_ Min-Zeit 05:50 18:35 19:25 - - - - 02:20
Minimum _ 1,3 C 34 % 996,2 hPa - - - - 0,0 km/h (0 Bft)
Max-Datum _ 11.05.17 14.05.17 14.05.17 14.05.17 - 14.05.17 14.05.17 11.05.17
_ Max-Zeit 14:35 06:00 23:55 13:15 - 15:08 11:05 16:05
Maximum _ 22,6 C 99 % 1024,7 hPa 7,0 l/m - 0,13 h 1111 W/m 29,0 km/h
S (5 Bft)
Durchschnitt _ 12,0 C 80 % 1009,8 hPa #28,4 l/m SW #43:52 h 310 W/m 6,9 km/h (2 Bft)